You are listening to:
KMDW Tower #1 - Chicago, Illinois, United States

KMDW 020353Z 10004KT 10SM FEW085 03/02 A3014 RMK AO2 SLP211 T00330022

If stream doesn't start automatically press the play button
If stream stops then reload player then press play